Frenchburg, Kentucky
Current Conditions -  °F | °C
As of 4:30 PM on Saturday 25 Oct 2014 (Local Time) from KSYM Reporting Station
Scattered Clouds Scattered Clouds  
Wind Chill: 68°   Ceiling: Unl
Heat Index: 68°   Visibility: 10mi
Dew Point: 55°   Wind: 9mph
Humidity: 64%   Direction: 230°SW
Pressure: 29.97"   Gusts: 16mph
Location:  37.95°N, 83.63°W
Report Text: KSYM 252030Z AUTO 23008G14KT 10SM SCT027 20/13 A2997 RMK AO2
Loading
Personal Weather Stations






























Interactive Weather Map
Tropical Storm Tracking
New forecast layout! Learn more

10-Day Weather Forecast

Advertisements
Track Severe Weather on mobile